createdAt,value
2017-05-16T00:00:37.268Z,10.08
2017-05-16T00:03:06.476Z,6.30
2017-05-16T00:05:35.676Z,4.90
2017-05-16T00:08:05.637Z,6.04
2017-05-16T00:10:34.816Z,5.10
2017-05-16T00:13:04.019Z,3.58
2017-05-16T00:15:33.335Z,6.60
2017-05-16T00:18:02.528Z,5.66
2017-05-16T00:20:31.837Z,7.26
2017-05-16T00:23:01.043Z,7.84
2017-05-16T00:25:30.252Z,5.34
2017-05-16T00:27:59.452Z,3.88
2017-05-16T00:30:28.732Z,3.20
2017-05-16T00:32:58.072Z,3.28
2017-05-16T00:35:27.291Z,3.96
2017-05-16T00:37:56.495Z,3.70
2017-05-16T00:40:26.432Z,6.02
2017-05-16T00:42:55.683Z,7.42
2017-05-16T00:45:25.664Z,4.68
2017-05-16T00:47:54.880Z,4.94
2017-05-16T00:50:24.063Z,5.94
2017-05-16T00:52:53.257Z,4.42
2017-05-16T00:55:23.889Z,7.94
2017-05-16T00:57:53.082Z,7.56
2017-05-16T01:00:22.275Z,3.88
2017-05-16T01:02:51.519Z,5.92
2017-05-16T01:05:20.803Z,5.92
2017-05-16T01:07:50.022Z,5.50
2017-05-16T01:10:19.291Z,4.92
2017-05-16T01:12:48.543Z,4.12
2017-05-16T01:15:17.791Z,6.76
2017-05-16T01:17:46.980Z,5.44
2017-05-16T01:20:15.909Z,6.38
2017-05-16T01:22:45.191Z,7.02
2017-05-16T01:25:14.385Z,5.84
2017-05-16T01:27:43.664Z,6.78
2017-05-16T01:30:13.582Z,5.68
2017-05-16T01:32:43.532Z,12.08
2017-05-16T01:35:12.401Z,5.38
2017-05-16T01:37:41.620Z,5.72
2017-05-16T01:40:10.887Z,5.54
2017-05-16T01:42:40.844Z,7.06
2017-05-16T01:45:10.204Z,7.18
2017-05-16T01:47:40.155Z,10.42
2017-05-16T01:50:09.360Z,5.90
2017-05-16T01:52:38.556Z,7.48
2017-05-16T01:55:07.757Z,10.54
2017-05-16T01:57:36.940Z,7.78
2017-05-16T02:00:06.140Z,5.08
2017-05-16T02:02:35.375Z,9.56
2017-05-16T02:05:04.654Z,6.82
2017-05-16T02:07:33.860Z,7.02
2017-05-16T02:10:03.069Z,5.46
2017-05-16T02:12:32.255Z,7.20
2017-05-16T02:15:01.456Z,5.96
2017-05-16T02:17:30.656Z,5.54
2017-05-16T02:19:59.856Z,9.28
2017-05-16T02:22:29.058Z,6.18
2017-05-16T02:24:59.675Z,6.38
2017-05-16T02:27:28.887Z,10.14
2017-05-16T02:29:58.216Z,6.00
2017-05-16T02:32:28.176Z,5.54
2017-05-16T02:34:58.135Z,8.50
2017-05-16T02:37:27.348Z,5.18
2017-05-16T02:39:57.236Z,6.20
2017-05-16T02:42:26.427Z,5.78
2017-05-16T02:44:55.657Z,7.38
2017-05-16T02:47:24.865Z,8.06
2017-05-16T02:49:54.119Z,5.70
2017-05-16T02:52:23.323Z,7.44
2017-05-16T02:54:52.549Z,6.62
2017-05-16T02:57:21.818Z,6.70
2017-05-16T02:59:52.448Z,8.02
2017-05-16T03:02:21.642Z,6.02
2017-05-16T03:04:51.576Z,6.88
2017-05-16T03:07:20.775Z,5.98
2017-05-16T03:09:49.979Z,4.48
2017-05-16T03:12:19.184Z,5.34
2017-05-16T03:14:48.364Z,4.82
2017-05-16T03:17:17.561Z,6.02
2017-05-16T03:19:47.467Z,6.88
2017-05-16T03:22:17.405Z,8.40
2017-05-16T03:24:46.703Z,8.32
2017-05-16T03:27:15.891Z,10.70
2017-05-16T03:29:45.099Z,9.18
2017-05-16T03:32:14.325Z,7.26
2017-05-16T03:34:43.506Z,5.24
2017-05-16T03:37:12.719Z,8.68
2017-05-16T03:39:41.911Z,6.98
2017-05-16T03:42:11.096Z,6.08
2017-05-16T03:44:41.838Z,6.42
2017-05-16T03:47:11.015Z,9.46
2017-05-16T03:49:40.214Z,9.02
2017-05-16T03:52:09.412Z,5.90
2017-05-16T03:54:39.461Z,6.20
2017-05-16T03:57:08.672Z,6.04
2017-05-16T03:59:38.562Z,6.80
2017-05-16T04:02:07.772Z,5.52
2017-05-16T04:04:36.978Z,10.84
2017-05-16T04:07:06.175Z,6.46
2017-05-16T04:09:35.413Z,9.06
2017-05-16T04:12:04.664Z,7.92
2017-05-16T04:14:33.871Z,7.06
2017-05-16T04:17:03.057Z,4.84
2017-05-16T04:19:32.251Z,5.12
2017-05-16T04:22:01.448Z,6.88
2017-05-16T04:24:30.639Z,6.94
2017-05-16T04:27:00.578Z,5.86
2017-05-16T04:29:29.805Z,6.24
2017-05-16T04:31:59.748Z,5.46
2017-05-16T04:34:28.943Z,5.14
2017-05-16T04:36:58.842Z,8.48
2017-05-16T04:39:28.035Z,10.08
2017-05-16T04:41:58.275Z,5.48
2017-05-16T04:44:27.475Z,4.60
2017-05-16T04:46:56.659Z,8.42
2017-05-16T04:49:25.881Z,6.72
2017-05-16T04:51:55.068Z,4.82
2017-05-16T04:54:24.280Z,8.50
2017-05-16T04:56:53.468Z,6.52
2017-05-16T04:59:22.655Z,6.96
2017-05-16T05:01:52.143Z,5.25
2017-05-16T05:04:21.333Z,6.88
2017-05-16T05:06:50.559Z,6.74
2017-05-16T05:09:19.755Z,8.64
2017-05-16T05:11:49.012Z,8.62
2017-05-16T05:14:18.948Z,7.68
2017-05-16T05:16:48.183Z,6.96
2017-05-16T05:19:17.612Z,6.74
2017-05-16T05:21:46.812Z,12.18
2017-05-16T05:24:16.019Z,10.12
2017-05-16T05:26:45.971Z,13.58
2017-05-16T05:29:15.177Z,11.48
2017-05-16T05:31:44.413Z,9.34
2017-05-16T05:34:14.125Z,8.60
2017-05-16T05:36:43.340Z,8.84
2017-05-16T05:39:12.537Z,7.98
2017-05-16T05:41:41.908Z,7.22
2017-05-16T05:44:11.095Z,8.62
2017-05-16T05:46:40.315Z,8.20
2017-05-16T05:49:09.691Z,11.40
2017-05-16T05:51:38.875Z,9.50
2017-05-16T05:54:09.248Z,15.52
2017-05-16T05:56:38.453Z,17.16
2017-05-16T05:59:07.668Z,16.52
2017-05-16T06:01:36.863Z,12.86
2017-05-16T06:04:06.427Z,19.26
2017-05-16T06:06:35.639Z,16.98
2017-05-16T06:09:04.153Z,17.48
2017-05-16T06:11:34.032Z,17.46
2017-05-16T06:14:03.255Z,19.96
2017-05-16T06:16:32.475Z,17.20
2017-05-16T06:19:01.680Z,17.18
2017-05-16T06:21:31.743Z,16.94
2017-05-16T06:24:00.955Z,20.64
2017-05-16T06:26:30.154Z,16.28
2017-05-16T06:28:59.354Z,15.30
2017-05-16T06:31:28.588Z,15.56
2017-05-16T06:33:57.807Z,20.82
2017-05-16T06:36:27.789Z,14.38
2017-05-16T06:38:57.002Z,10.20
2017-05-16T06:41:26.208Z,13.36
2017-05-16T06:43:55.523Z,24.32
2017-05-16T06:46:25.544Z,16.30
2017-05-16T06:48:55.486Z,10.78
2017-05-16T06:51:24.701Z,11.94
2017-05-16T06:53:53.908Z,17.74
2017-05-16T06:56:23.127Z,14.10
2017-05-16T06:58:52.343Z,13.96
2017-05-16T07:01:21.561Z,17.68
2017-05-16T07:03:51.543Z,17.08
2017-05-16T07:06:20.778Z,15.54
2017-05-16T07:08:50.854Z,11.36
2017-05-16T07:11:20.075Z,10.38
2017-05-16T07:13:49.972Z,10.16
2017-05-16T07:16:19.196Z,13.92
2017-05-16T07:18:49.143Z,7.64
2017-05-16T07:21:18.344Z,6.82
2017-05-16T07:23:47.539Z,7.38
2017-05-16T07:26:16.755Z,6.60
2017-05-16T07:28:45.952Z,8.66
2017-05-16T07:31:15.173Z,8.58
2017-05-16T07:33:44.478Z,7.66
2017-05-16T07:36:15.083Z,11.08
2017-05-16T07:38:44.289Z,10.06
2017-05-16T07:41:13.523Z,8.78
2017-05-16T07:43:42.815Z,11.46
2017-05-16T07:46:12.014Z,8.00
2017-05-16T07:48:41.238Z,14.70
2017-05-16T07:51:10.428Z,7.52
2017-05-16T07:53:39.627Z,12.90
2017-05-16T07:56:08.868Z,8.18
2017-05-16T07:58:38.820Z,11.50
2017-05-16T08:01:08.859Z,8.26
2017-05-16T08:03:38.764Z,8.70
2017-05-16T08:06:07.665Z,8.06
2017-05-16T08:08:36.859Z,9.64
2017-05-16T08:11:06.164Z,6.20
2017-05-16T08:13:35.359Z,5.48
2017-05-16T08:16:04.635Z,5.90
2017-05-16T08:18:33.847Z,6.12
2017-05-16T08:21:03.055Z,6.90
2017-05-16T08:23:32.417Z,3.14
2017-05-16T08:26:01.608Z,10.68
2017-05-16T08:28:31.628Z,3.48
2017-05-16T08:31:00.848Z,3.24
2017-05-16T08:33:30.099Z,3.40
2017-05-16T08:35:59.475Z,3.72
2017-05-16T08:38:28.701Z,3.54
2017-05-16T08:40:58.580Z,3.00
2017-05-16T08:43:27.808Z,4.42
2017-05-16T08:45:56.992Z,5.16
2017-05-16T08:48:26.192Z,3.28
2017-05-16T08:50:55.399Z,4.42
2017-05-16T08:53:24.598Z,6.12
2017-05-16T08:55:53.859Z,3.06
2017-05-16T08:58:23.067Z,3.24
2017-05-16T09:00:52.272Z,2.42
2017-05-16T09:03:21.601Z,2.50
2017-05-16T09:05:51.490Z,3.44
2017-05-16T09:08:20.779Z,3.04
2017-05-16T09:10:49.964Z,3.84
2017-05-16T09:13:19.178Z,3.04
2017-05-16T09:15:49.792Z,3.46
2017-05-16T09:18:19.072Z,2.52
2017-05-16T09:20:48.267Z,2.48
2017-05-16T09:23:17.515Z,5.62
2017-05-16T09:25:46.724Z,2.32
2017-05-16T09:28:15.938Z,5.68
2017-05-16T09:30:45.140Z,2.24
2017-05-16T09:33:14.339Z,5.14
2017-05-16T09:35:44.427Z,3.80
2017-05-16T09:38:13.631Z,3.28
2017-05-16T09:40:42.849Z,2.06
2017-05-16T09:43:12.032Z,3.68
2017-05-16T09:45:41.229Z,3.00
2017-05-16T09:48:10.431Z,3.26
2017-05-16T09:50:39.670Z,2.12
2017-05-16T09:53:08.896Z,2.92
2017-05-16T09:55:38.823Z,1.80
2017-05-16T09:58:08.051Z,4.08
2017-05-16T10:00:37.247Z,3.10
2017-05-16T10:03:06.446Z,2.28
2017-05-16T10:05:35.658Z,5.36
2017-05-16T10:08:04.850Z,4.30
2017-05-16T10:10:34.111Z,2.94
2017-05-16T10:13:04.064Z,3.40
2017-05-16T10:15:33.258Z,6.68
2017-05-16T10:18:02.463Z,4.10
2017-05-16T10:20:31.672Z,2.34
2017-05-16T10:23:00.863Z,2.34
2017-05-16T10:25:30.088Z,3.02
2017-05-16T10:27:59.279Z,2.88
2017-05-16T10:30:28.500Z,4.20
2017-05-16T10:32:57.700Z,4.40
2017-05-16T10:37:55.399Z,3.76
2017-05-16T10:40:25.373Z,6.04
2017-05-16T10:42:54.564Z,3.02
2017-05-16T10:45:23.764Z,4.04
2017-05-16T10:47:53.002Z,5.04
2017-05-16T10:50:22.209Z,3.72
2017-05-16T10:52:51.426Z,4.78
2017-05-16T10:55:21.348Z,3.98
2017-05-16T10:57:50.593Z,2.88
2017-05-16T11:00:19.835Z,6.70
2017-05-16T11:02:49.777Z,4.38
2017-05-16T11:05:18.964Z,4.86
2017-05-16T11:07:48.161Z,3.30
2017-05-16T11:10:17.379Z,3.42
2017-05-16T11:12:46.665Z,4.54
2017-05-16T11:15:15.874Z,3.96
2017-05-16T11:17:46.498Z,2.56
2017-05-16T11:20:16.536Z,4.54
2017-05-16T11:22:45.755Z,9.46
2017-05-16T11:25:14.955Z,2.52
2017-05-16T11:27:44.219Z,5.16
2017-05-16T11:30:13.420Z,2.68
2017-05-16T11:32:42.604Z,3.14
2017-05-16T11:35:12.639Z,2.50
2017-05-16T11:37:41.830Z,6.20
2017-05-16T11:40:10.707Z,3.74
2017-05-16T11:42:40.636Z,3.12
2017-05-16T11:45:09.873Z,2.82
2017-05-16T11:47:39.069Z,4.64
2017-05-16T11:50:08.263Z,3.96
2017-05-16T11:52:37.477Z,3.88
2017-05-16T11:55:07.391Z,5.28
2017-05-16T11:57:36.609Z,2.98
2017-05-16T12:00:05.811Z,3.74
2017-05-16T12:02:35.019Z,4.36
2017-05-16T12:05:04.247Z,4.74
2017-05-16T12:07:34.210Z,5.50
2017-05-16T12:10:03.463Z,4.06
2017-05-16T12:12:33.397Z,3.60
2017-05-16T12:15:02.612Z,3.06
2017-05-16T12:17:31.811Z,3.54
2017-05-16T12:20:01.030Z,3.14
2017-05-16T12:22:30.398Z,4.30
2017-05-16T12:24:59.736Z,5.28
2017-05-16T12:27:28.951Z,2.42
2017-05-16T12:29:58.845Z,3.52
2017-05-16T12:32:28.049Z,3.02
2017-05-16T12:34:57.285Z,4.76
2017-05-16T12:37:27.225Z,2.12
2017-05-16T12:39:56.547Z,3.88
2017-05-16T12:42:25.748Z,2.20
2017-05-16T12:44:54.940Z,4.02
2017-05-16T12:47:24.155Z,2.88
2017-05-16T12:49:53.391Z,4.00
2017-05-16T12:52:22.652Z,4.18
2017-05-16T12:54:51.850Z,2.10
2017-05-16T12:57:21.079Z,2.72
2017-05-16T12:59:50.364Z,5.44
2017-05-16T13:02:19.563Z,3.38
2017-05-16T13:04:48.783Z,2.86
2017-05-16T13:07:17.991Z,4.94
2017-05-16T13:09:47.163Z,3.46
2017-05-16T13:12:16.428Z,2.68
2017-05-16T13:14:45.610Z,2.54
2017-05-16T13:17:15.584Z,2.68
2017-05-16T13:19:44.778Z,3.18
2017-05-16T13:22:13.975Z,2.78
2017-05-16T13:24:43.187Z,1.70
2017-05-16T13:27:12.403Z,1.74
2017-05-16T13:29:41.603Z,3.98
2017-05-16T13:32:10.801Z,3.48
2017-05-16T13:34:40.015Z,2.02
2017-05-16T13:37:09.959Z,1.44
2017-05-16T13:39:39.156Z,2.70
2017-05-16T13:42:08.386Z,2.90
2017-05-16T13:44:37.571Z,4.18
2017-05-16T13:47:06.792Z,1.72
2017-05-16T13:49:36.016Z,2.28
2017-05-16T13:52:05.229Z,3.44
2017-05-16T13:54:35.160Z,4.06
2017-05-16T13:57:04.431Z,2.80
2017-05-16T13:59:33.625Z,2.02
2017-05-16T14:02:02.844Z,6.30
2017-05-16T14:04:32.772Z,2.40
2017-05-16T14:07:02.732Z,2.00
2017-05-16T14:09:32.723Z,2.14
2017-05-16T14:12:01.932Z,3.16
2017-05-16T14:14:31.129Z,3.92
2017-05-16T14:17:00.316Z,2.52
2017-05-16T14:19:29.667Z,2.74
2017-05-16T14:21:58.927Z,2.78
2017-05-16T14:24:28.116Z,1.96
2017-05-16T14:26:57.337Z,2.68
2017-05-16T14:29:26.551Z,2.68
2017-05-16T14:31:55.767Z,2.16
2017-05-16T14:34:24.995Z,2.96
2017-05-16T14:36:55.130Z,1.86
2017-05-16T14:39:25.080Z,4.08
2017-05-16T14:41:54.332Z,3.24
2017-05-16T14:44:23.546Z,3.16
2017-05-16T14:46:52.756Z,2.36
2017-05-16T14:49:21.967Z,1.48
2017-05-16T14:51:51.168Z,1.64
2017-05-16T14:54:20.559Z,3.88
2017-05-16T14:56:49.761Z,2.28
2017-05-16T14:59:19.027Z,1.80
2017-05-16T15:01:48.231Z,3.84
2017-05-16T15:04:18.306Z,2.70
2017-05-16T15:06:47.524Z,2.82
2017-05-16T15:09:16.748Z,4.24
2017-05-16T15:11:46.687Z,2.96
2017-05-16T15:14:15.907Z,4.98
2017-05-16T15:16:45.087Z,2.04
2017-05-16T15:19:14.304Z,2.20
2017-05-16T15:21:43.495Z,1.94
2017-05-16T15:24:12.731Z,1.60
2017-05-16T15:26:41.928Z,4.60
2017-05-16T15:29:11.263Z,2.58
2017-05-16T15:31:40.483Z,2.00
2017-05-16T15:34:09.680Z,3.46
2017-05-16T15:36:39.631Z,2.90
2017-05-16T15:39:08.819Z,2.16
2017-05-16T15:41:38.024Z,2.22
2017-05-16T15:44:07.253Z,1.40
2017-05-16T15:46:36.272Z,13.56
2017-05-16T15:49:05.499Z,3.04
2017-05-16T15:51:34.698Z,2.90
2017-05-16T15:54:03.919Z,3.46
2017-05-16T15:56:33.822Z,2.30
2017-05-16T15:59:03.052Z,4.34
2017-05-16T16:01:32.254Z,3.66
2017-05-16T16:04:01.463Z,2.56
2017-05-16T16:06:30.827Z,3.00
2017-05-16T16:09:00.028Z,2.50
2017-05-16T16:11:29.287Z,2.56
2017-05-16T16:13:58.476Z,2.50
2017-05-16T16:16:27.667Z,2.12
2017-05-16T16:18:56.904Z,2.08
2017-05-16T16:21:26.840Z,3.02
2017-05-16T16:23:56.060Z,2.34
2017-05-16T16:26:25.255Z,2.36
2017-05-16T16:28:54.461Z,3.46
2017-05-16T16:31:23.773Z,2.30
2017-05-16T16:33:52.999Z,3.88
2017-05-16T16:36:23.371Z,3.80
2017-05-16T16:38:52.576Z,6.16
2017-05-16T16:41:21.783Z,3.38
2017-05-16T16:43:51.045Z,5.16
2017-05-16T16:46:21.012Z,4.78
2017-05-16T16:48:50.219Z,1.60
2017-05-16T16:51:19.411Z,2.04
2017-05-16T16:53:48.638Z,2.82
2017-05-16T16:56:17.831Z,4.26
2017-05-16T16:58:47.050Z,2.98
2017-05-16T17:01:16.995Z,2.16
2017-05-16T17:03:46.219Z,2.40
2017-05-16T17:06:15.427Z,3.82
2017-05-16T17:08:44.641Z,2.84
2017-05-16T17:11:13.972Z,2.16
2017-05-16T17:13:43.944Z,3.46
2017-05-16T17:16:13.149Z,3.14
2017-05-16T17:18:42.356Z,2.78
2017-05-16T17:21:11.566Z,1.54
2017-05-16T17:23:40.782Z,4.84
2017-05-16T17:26:10.726Z,3.36
2017-05-16T17:28:39.955Z,3.30
2017-05-16T17:31:09.155Z,3.50
2017-05-16T17:33:38.387Z,4.12
2017-05-16T17:36:07.620Z,4.32
2017-05-16T17:38:36.834Z,4.10
2017-05-16T17:41:06.036Z,3.90
2017-05-16T17:43:35.050Z,2.42
2017-05-16T17:46:04.241Z,4.36
2017-05-16T17:48:33.461Z,7.54
2017-05-16T17:51:02.725Z,3.36
2017-05-16T17:53:32.654Z,5.00
2017-05-16T17:56:01.860Z,2.20
2017-05-16T17:58:31.058Z,4.88
2017-05-16T18:01:00.279Z,3.30
2017-05-16T18:03:29.484Z,5.00
2017-05-16T18:05:59.373Z,4.22
2017-05-16T18:08:28.708Z,3.54
2017-05-16T18:10:58.002Z,10.62
2017-05-16T18:13:27.335Z,3.72
2017-05-16T18:15:57.332Z,8.18
2017-05-16T18:18:26.601Z,2.48
2017-05-16T18:20:55.805Z,4.66
2017-05-16T18:23:25.020Z,3.98
2017-05-16T18:25:54.245Z,5.08
2017-05-16T18:28:24.196Z,6.64
2017-05-16T18:30:53.394Z,2.76
2017-05-16T18:33:22.649Z,5.66
2017-05-16T18:35:51.925Z,8.28
2017-05-16T18:38:21.164Z,4.68
2017-05-16T18:40:51.145Z,3.82
2017-05-16T18:43:20.480Z,2.92
2017-05-16T18:45:50.460Z,2.56
2017-05-16T18:48:19.684Z,3.30
2017-05-16T18:50:48.874Z,3.04
2017-05-16T18:53:18.140Z,4.22
2017-05-16T18:55:47.329Z,5.26
2017-05-16T18:58:16.535Z,4.06
2017-05-16T19:00:45.735Z,11.74
2017-05-16T19:03:14.949Z,3.12
2017-05-16T19:05:44.127Z,3.08
2017-05-16T19:08:13.345Z,4.08
2017-05-16T19:10:42.559Z,5.30
2017-05-16T19:13:11.788Z,3.92
2017-05-16T19:15:41.726Z,7.38
2017-05-16T19:18:11.687Z,4.32
2017-05-16T19:20:40.912Z,6.06
2017-05-16T19:23:10.112Z,5.36
2017-05-16T19:25:39.348Z,4.02
2017-05-16T19:28:09.350Z,3.60
2017-05-16T19:30:39.300Z,4.30
2017-05-16T19:33:08.524Z,3.04
2017-05-16T19:35:37.751Z,3.22
2017-05-16T19:38:06.969Z,3.12
2017-05-16T19:40:36.918Z,3.20
2017-05-16T19:43:06.125Z,5.92
2017-05-16T19:45:35.349Z,4.06
2017-05-16T19:48:04.564Z,4.70
2017-05-16T19:50:33.747Z,4.46
2017-05-16T19:53:02.973Z,3.32
2017-05-16T19:55:32.922Z,6.34
2017-05-16T19:58:03.575Z,4.32
2017-05-16T20:00:32.768Z,7.62
2017-05-16T20:03:01.967Z,6.20
2017-05-16T20:05:31.167Z,12.02
2017-05-16T20:08:00.366Z,9.52
2017-05-16T20:10:29.583Z,9.20
2017-05-16T20:12:58.784Z,7.82
2017-05-16T20:15:28.031Z,6.14
2017-05-16T20:17:58.132Z,6.28
2017-05-16T20:20:27.331Z,5.84
2017-05-16T20:22:56.541Z,5.26
2017-05-16T20:25:26.517Z,5.40
2017-05-16T20:27:55.755Z,7.02
2017-05-16T20:30:24.970Z,5.74
2017-05-16T20:32:54.210Z,5.86
2017-05-16T20:35:23.413Z,6.16
2017-05-16T20:37:52.605Z,6.68
2017-05-16T20:40:21.819Z,5.64
2017-05-16T20:42:51.060Z,7.50
2017-05-16T20:45:20.291Z,6.16
2017-05-16T20:47:49.497Z,5.18
2017-05-16T20:50:18.699Z,5.56
2017-05-16T20:52:47.939Z,5.62
2017-05-16T20:55:17.116Z,5.22
2017-05-16T20:57:46.332Z,5.02
2017-05-16T21:00:15.546Z,7.08
2017-05-16T21:02:44.776Z,6.38
2017-05-16T21:05:14.002Z,6.18
2017-05-16T21:07:43.229Z,5.28
2017-05-16T21:10:12.413Z,7.24
2017-05-16T21:12:41.606Z,6.02
2017-05-16T21:15:10.891Z,6.80
2017-05-16T21:17:40.116Z,5.02
2017-05-16T21:20:09.313Z,5.32
2017-05-16T21:22:38.519Z,7.98
2017-05-16T21:25:07.720Z,9.70
2017-05-16T21:27:36.947Z,7.76
2017-05-16T21:30:06.904Z,6.10
2017-05-16T21:32:36.099Z,6.12
2017-05-16T21:35:05.370Z,8.68
2017-05-16T21:37:35.300Z,9.32
2017-05-16T21:40:04.507Z,6.90
2017-05-16T21:42:33.706Z,6.34
2017-05-16T21:45:02.929Z,6.34
2017-05-16T21:47:33.572Z,7.62
2017-05-16T21:50:02.764Z,9.40
2017-05-16T21:52:31.968Z,6.70
2017-05-16T21:55:01.316Z,12.96
2017-05-16T21:57:31.271Z,7.32
2017-05-16T22:00:00.480Z,7.74
2017-05-16T22:02:29.728Z,7.68
2017-05-16T22:04:59.702Z,8.12
2017-05-16T22:07:28.907Z,6.12
2017-05-16T22:09:58.137Z,8.98
2017-05-16T22:12:27.352Z,6.32
2017-05-16T22:14:57.315Z,6.08
2017-05-16T22:17:27.331Z,9.36
2017-05-16T22:19:56.541Z,7.26
2017-05-16T22:22:25.759Z,7.26
2017-05-16T22:24:54.948Z,8.68
2017-05-16T22:27:24.168Z,7.46
2017-05-16T22:29:53.395Z,6.74
2017-05-16T22:32:23.334Z,7.94
2017-05-16T22:34:52.536Z,5.98
2017-05-16T22:37:21.751Z,6.76
2017-05-16T22:39:50.952Z,12.92
2017-05-16T22:42:20.136Z,7.64
2017-05-16T22:44:49.395Z,6.06
2017-05-16T22:47:19.332Z,6.10
2017-05-16T22:49:48.640Z,5.64
2017-05-16T22:52:17.827Z,7.20
2017-05-16T22:54:47.801Z,5.28
2017-05-16T22:57:17.032Z,7.10
2017-05-16T22:59:47.008Z,6.24
2017-05-16T23:02:16.205Z,7.52
2017-05-16T23:04:46.207Z,8.66
2017-05-16T23:07:15.031Z,5.92
2017-05-16T23:09:44.328Z,6.68
2017-05-16T23:12:13.525Z,7.06
2017-05-16T23:14:42.742Z,6.12
2017-05-16T23:17:11.945Z,9.04
2017-05-16T23:19:41.135Z,6.10
2017-05-16T23:22:10.351Z,12.52
2017-05-16T23:24:40.295Z,8.74
2017-05-16T23:27:09.537Z,6.58
2017-05-16T23:29:38.728Z,8.56
2017-05-16T23:32:07.947Z,7.70
2017-05-16T23:34:37.177Z,6.74
2017-05-16T23:37:07.232Z,5.28
2017-05-16T23:39:36.439Z,7.00
2017-05-16T23:42:05.659Z,7.96
2017-05-16T23:44:34.931Z,9.08
2017-05-16T23:47:04.132Z,6.86
2017-05-16T23:49:33.351Z,10.60
2017-05-16T23:52:03.235Z,8.14
2017-05-16T23:54:32.438Z,7.62
2017-05-16T23:57:01.621Z,7.10
2017-05-16T23:59:30.858Z,9.84
